createdAt,value
2022-12-23T00:02:00.461Z,51.59
2022-12-23T00:04:01.953Z,51.27
2022-12-23T00:06:03.287Z,51.78
2022-12-23T00:08:04.611Z,51.32
2022-12-23T00:10:05.910Z,51.41
2022-12-23T00:12:25.698Z,51.32
2022-12-23T00:14:45.467Z,51.35
2022-12-23T00:16:46.804Z,51.19
2022-12-23T00:18:48.205Z,51.53
2022-12-23T00:20:49.494Z,50.95
2022-12-23T00:23:06.265Z,51.42
2022-12-23T00:25:07.629Z,51.14
2022-12-23T00:27:08.960Z,51.72
2022-12-23T00:29:10.255Z,51.55
2022-12-23T00:31:12.660Z,51.26
2022-12-23T00:33:14.063Z,52.23
2022-12-23T00:35:15.362Z,51.92
2022-12-23T00:37:16.715Z,50.96
2022-12-23T00:39:36.631Z,51.88
2022-12-23T00:41:56.655Z,51.45
2022-12-23T00:43:57.944Z,51.37
2022-12-23T00:45:59.319Z,51.57
2022-12-23T00:48:19.538Z,51.83
2022-12-23T00:50:20.831Z,51.79
2022-12-23T00:52:22.124Z,51.81
2022-12-23T00:54:23.451Z,51.59
2022-12-23T00:56:24.746Z,51.73
2022-12-23T00:58:26.633Z,51.34
2022-12-23T01:00:46.749Z,51.62
2022-12-23T01:03:06.976Z,47.83
2022-12-23T01:05:27.264Z,46.88
2022-12-23T01:07:28.638Z,49.33
2022-12-23T01:09:29.942Z,48.50
2022-12-23T01:11:31.271Z,48.02
2022-12-23T01:13:32.567Z,47.97
2022-12-23T01:15:33.867Z,48.58
2022-12-23T01:17:35.172Z,48.65
2022-12-23T01:19:36.503Z,48.81
2022-12-23T01:21:37.844Z,49.03
2022-12-23T01:23:39.168Z,49.11
2022-12-23T01:25:40.516Z,49.63
2022-12-23T01:27:41.811Z,49.89
2022-12-23T01:29:43.126Z,50.21
2022-12-23T01:31:44.461Z,50.18
2022-12-23T01:33:46.051Z,49.90
2022-12-23T01:35:47.412Z,50.38
2022-12-23T01:37:48.706Z,50.51
2022-12-23T01:39:50.046Z,50.74
2022-12-23T01:42:09.999Z,50.91
2022-12-23T01:44:11.301Z,50.65
2022-12-23T01:46:12.650Z,50.92
2022-12-23T01:48:14.070Z,50.77
2022-12-23T01:50:15.391Z,50.94
2022-12-23T01:52:16.695Z,51.44
2022-12-23T01:54:18.048Z,51.75
2022-12-23T01:56:19.347Z,51.61
2022-12-23T01:58:20.683Z,51.95
2022-12-23T02:00:48.019Z,51.84
2022-12-23T02:03:07.899Z,52.60
2022-12-23T02:05:09.361Z,52.66
2022-12-23T02:07:29.404Z,52.32
2022-12-23T02:09:30.713Z,52.78
2022-12-23T02:11:32.113Z,52.29
2022-12-23T02:13:33.436Z,52.62
2022-12-23T02:15:53.234Z,52.45
2022-12-23T02:17:54.600Z,52.78
2022-12-23T02:19:55.891Z,52.64
2022-12-23T02:21:57.185Z,52.75
2022-12-23T02:23:58.522Z,52.78
2022-12-23T02:25:59.861Z,52.63
2022-12-23T02:28:01.172Z,53.32
2022-12-23T02:30:02.502Z,53.51
2022-12-23T02:32:03.811Z,53.71
2022-12-23T02:34:05.146Z,53.50
2022-12-23T02:36:06.442Z,54.07
2022-12-23T02:38:07.750Z,53.63
2022-12-23T02:40:09.088Z,54.18
2022-12-23T02:42:10.444Z,53.87
2022-12-23T02:44:11.760Z,54.06
2022-12-23T02:46:13.430Z,54.03
2022-12-23T02:48:14.829Z,54.22
2022-12-23T02:50:16.135Z,53.82
2022-12-23T02:52:17.558Z,53.87
2022-12-23T02:54:18.839Z,53.62
2022-12-23T02:56:20.153Z,53.61
2022-12-23T02:58:21.498Z,53.52
2022-12-23T03:00:22.995Z,53.19
2022-12-23T03:02:24.516Z,53.81
2022-12-23T03:04:25.904Z,53.38
2022-12-23T03:06:27.238Z,53.53
2022-12-23T03:08:28.631Z,53.32
2022-12-23T03:10:29.992Z,53.00
2022-12-23T03:12:31.323Z,53.75
2022-12-23T03:14:32.618Z,53.66
2022-12-23T03:16:33.973Z,53.39
2022-12-23T03:18:35.274Z,53.47
2022-12-23T03:20:36.603Z,53.96
2022-12-23T03:22:37.897Z,54.13
2022-12-23T03:24:40.768Z,54.08
2022-12-23T03:26:42.092Z,54.07
2022-12-23T03:28:43.385Z,55.05
2022-12-23T03:30:45.923Z,55.20
2022-12-23T03:32:47.285Z,55.76
2022-12-23T03:34:48.614Z,56.14
2022-12-23T03:36:49.965Z,56.05
2022-12-23T03:38:51.365Z,57.06
2022-12-23T03:40:52.688Z,56.71
2022-12-23T03:42:54.804Z,57.46
2022-12-23T03:45:36.530Z,57.21
2022-12-23T03:47:17.383Z,57.22
2022-12-23T03:49:18.683Z,57.59
2022-12-23T03:51:19.982Z,57.92
2022-12-23T03:53:21.287Z,57.54
2022-12-23T03:55:22.590Z,58.41
2022-12-23T03:57:23.916Z,57.60
2022-12-23T03:59:25.279Z,57.74
2022-12-23T04:01:26.664Z,57.24
2022-12-23T04:03:28.038Z,58.00
2022-12-23T04:05:29.395Z,57.08
2022-12-23T04:07:30.713Z,57.93
2022-12-23T04:09:32.001Z,57.91
2022-12-23T04:11:33.299Z,58.09
2022-12-23T04:13:34.591Z,58.21
2022-12-23T04:15:36.018Z,58.05
2022-12-23T04:17:37.371Z,58.13
2022-12-23T04:19:38.738Z,58.24
2022-12-23T04:21:40.078Z,58.31
2022-12-23T04:23:41.438Z,57.78
2022-12-23T04:25:42.757Z,58.24
2022-12-23T04:27:44.067Z,57.84
2022-12-23T04:29:45.436Z,57.68
2022-12-23T04:31:46.765Z,57.33
2022-12-23T04:33:48.167Z,57.50
2022-12-23T04:35:49.481Z,56.84
2022-12-23T04:37:50.798Z,57.29
2022-12-23T04:39:52.110Z,56.69
2022-12-23T04:41:53.442Z,56.97
2022-12-23T04:43:54.730Z,56.85
2022-12-23T04:45:56.069Z,56.71
2022-12-23T04:47:57.671Z,56.84
2022-12-23T04:49:59.021Z,56.82
2022-12-23T04:52:00.374Z,56.58
2022-12-23T04:54:01.762Z,56.59
2022-12-23T04:56:03.051Z,56.25
2022-12-23T04:58:04.476Z,56.53
2022-12-23T05:00:05.841Z,56.63
2022-12-23T05:02:07.268Z,56.70
2022-12-23T05:04:08.951Z,56.88
2022-12-23T05:06:10.251Z,56.71
2022-12-23T05:08:11.640Z,56.76
2022-12-23T05:10:12.962Z,56.70
2022-12-23T05:12:14.261Z,56.62
2022-12-23T05:14:15.644Z,56.82
2022-12-23T05:16:17.179Z,56.77
2022-12-23T05:18:18.743Z,57.24
2022-12-23T05:20:20.041Z,57.06
2022-12-23T05:22:21.401Z,56.98
2022-12-23T05:24:22.855Z,57.42
2022-12-23T05:26:24.151Z,57.12
2022-12-23T05:28:25.481Z,56.88
2022-12-23T05:30:26.831Z,57.17
2022-12-23T05:32:28.151Z,57.23
2022-12-23T05:34:29.444Z,57.15
2022-12-23T05:36:30.852Z,57.05
2022-12-23T05:38:32.157Z,57.05
2022-12-23T05:40:33.763Z,56.74
2022-12-23T05:42:35.471Z,56.52
2022-12-23T05:44:36.771Z,56.85
2022-12-23T05:46:38.162Z,56.58
2022-12-23T05:48:39.554Z,57.01
2022-12-23T05:50:40.917Z,56.31
2022-12-23T05:52:42.248Z,56.88
2022-12-23T05:54:43.573Z,56.58
2022-12-23T05:56:44.870Z,56.14
2022-12-23T05:58:46.190Z,56.13
2022-12-23T06:00:47.493Z,56.06
2022-12-23T06:02:53.943Z,56.46
2022-12-23T06:04:55.889Z,55.86
2022-12-23T06:06:57.216Z,55.79
2022-12-23T06:09:00.097Z,56.00
2022-12-23T06:11:01.694Z,56.41
2022-12-23T06:13:03.035Z,56.33
2022-12-23T06:15:04.423Z,56.31
2022-12-23T06:17:05.774Z,56.53
2022-12-23T06:19:07.142Z,56.27
2022-12-23T06:21:08.473Z,56.33
2022-12-23T06:23:09.803Z,56.60
2022-12-23T06:25:11.116Z,56.40
2022-12-23T06:27:12.453Z,56.86
2022-12-23T06:29:13.761Z,56.73
2022-12-23T06:31:15.166Z,57.10
2022-12-23T06:33:16.570Z,57.14
2022-12-23T06:35:17.910Z,56.70
2022-12-23T06:37:19.207Z,56.93
2022-12-23T06:39:20.544Z,56.97
2022-12-23T06:41:21.888Z,57.11
2022-12-23T06:43:23.217Z,57.25
2022-12-23T06:45:24.546Z,57.44
2022-12-23T06:47:25.910Z,57.29
2022-12-23T06:49:27.207Z,57.44
2022-12-23T06:51:28.546Z,57.48
2022-12-23T06:53:29.848Z,57.17
2022-12-23T06:55:31.185Z,56.72
2022-12-23T06:57:32.527Z,56.69
2022-12-23T06:59:33.835Z,57.67
2022-12-23T07:01:35.284Z,57.60
2022-12-23T07:03:36.639Z,57.38
2022-12-23T07:05:38.101Z,57.32
2022-12-23T07:07:39.432Z,57.18
2022-12-23T07:09:40.723Z,57.47
2022-12-23T07:11:42.051Z,57.58
2022-12-23T07:13:43.354Z,57.27
2022-12-23T07:15:44.639Z,57.25
2022-12-23T07:17:45.975Z,57.27
2022-12-23T07:19:47.305Z,57.12
2022-12-23T07:21:48.605Z,57.32
2022-12-23T07:23:49.989Z,57.29
2022-12-23T07:25:51.300Z,57.59
2022-12-23T07:27:52.591Z,57.27
2022-12-23T07:29:53.899Z,57.49
2022-12-23T07:31:55.282Z,57.07
2022-12-23T07:33:56.651Z,57.11
2022-12-23T07:35:57.982Z,57.14
2022-12-23T07:37:59.277Z,57.11
2022-12-23T07:40:06.454Z,57.72
2022-12-23T07:42:42.907Z,57.52
2022-12-23T07:44:31.121Z,57.34
2022-12-23T07:46:32.582Z,56.76
2022-12-23T07:48:33.922Z,56.98
2022-12-23T07:50:35.427Z,57.01
2022-12-23T07:52:37.835Z,56.89
2022-12-23T07:54:39.144Z,56.62
2022-12-23T07:56:40.477Z,56.33
2022-12-23T07:58:42.353Z,56.31
2022-12-23T08:00:43.708Z,56.17
2022-12-23T08:02:45.162Z,56.18
2022-12-23T08:04:46.773Z,56.23
2022-12-23T08:06:48.191Z,55.80
2022-12-23T08:08:49.486Z,55.83
2022-12-23T08:10:50.834Z,55.67
2022-12-23T08:12:52.186Z,56.05
2022-12-23T08:14:53.547Z,55.25
2022-12-23T08:16:54.903Z,55.63
2022-12-23T08:18:56.247Z,54.93
2022-12-23T08:20:57.651Z,55.15
2022-12-23T08:22:58.943Z,55.04
2022-12-23T08:25:00.436Z,54.51
2022-12-23T08:27:01.756Z,54.57
2022-12-23T08:29:03.086Z,51.85
2022-12-23T08:31:04.531Z,51.95
2022-12-23T08:33:06.024Z,52.49
2022-12-23T08:35:07.522Z,52.94
2022-12-23T08:37:08.842Z,50.71
2022-12-23T08:39:10.164Z,50.62
2022-12-23T08:41:14.140Z,50.21
2022-12-23T08:43:15.467Z,50.11
2022-12-23T08:45:16.771Z,50.58
2022-12-23T08:47:18.068Z,51.03
2022-12-23T08:49:19.381Z,50.51
2022-12-23T08:51:20.726Z,50.90
2022-12-23T08:53:22.031Z,50.74
2022-12-23T08:55:23.325Z,51.21
2022-12-23T08:57:24.675Z,51.04
2022-12-23T08:59:25.997Z,51.25
2022-12-23T09:01:27.553Z,51.38
2022-12-23T09:03:29.183Z,51.14
2022-12-23T09:05:30.538Z,51.45
2022-12-23T09:07:32.066Z,51.18
2022-12-23T09:09:33.393Z,51.37
2022-12-23T09:11:34.694Z,51.31
2022-12-23T09:13:36.184Z,51.34
2022-12-23T09:15:38.845Z,51.50
2022-12-23T09:17:40.211Z,51.37
2022-12-23T09:19:42.454Z,51.82
2022-12-23T09:21:46.162Z,51.92
2022-12-23T09:23:47.539Z,51.65
2022-12-23T09:25:48.911Z,51.88
2022-12-23T09:27:50.209Z,52.09
2022-12-23T09:29:51.555Z,51.87
2022-12-23T09:31:52.938Z,51.80
2022-12-23T09:33:54.332Z,52.02
2022-12-23T09:35:55.666Z,52.20
2022-12-23T09:37:57.008Z,52.11
2022-12-23T09:39:58.392Z,51.93
2022-12-23T09:42:01.738Z,51.79
2022-12-23T09:44:03.254Z,51.98
2022-12-23T09:46:04.899Z,52.14
2022-12-23T09:48:06.210Z,52.40
2022-12-23T09:50:07.582Z,52.31
2022-12-23T09:52:09.205Z,51.99
2022-12-23T09:54:16.655Z,52.23
2022-12-23T09:56:18.558Z,51.78
2022-12-23T09:58:20.993Z,51.77
2022-12-23T10:00:22.306Z,52.10
2022-12-23T10:02:23.844Z,51.86
2022-12-23T10:04:25.421Z,52.06
2022-12-23T10:06:26.806Z,52.09
2022-12-23T10:08:28.113Z,51.84
2022-12-23T10:10:29.447Z,51.99
2022-12-23T10:12:37.420Z,51.75
2022-12-23T10:14:40.962Z,52.19
2022-12-23T10:16:42.325Z,52.24
2022-12-23T10:18:43.683Z,51.85
2022-12-23T10:20:45.050Z,52.03
2022-12-23T10:22:46.993Z,52.47
2022-12-23T10:24:48.379Z,52.24
2022-12-23T10:26:49.759Z,52.34
2022-12-23T10:28:51.102Z,52.08
2022-12-23T10:31:11.000Z,52.30
2022-12-23T10:33:13.731Z,52.10
2022-12-23T10:35:15.197Z,51.89
2022-12-23T10:37:16.505Z,52.33
2022-12-23T10:39:18.100Z,52.38
2022-12-23T10:41:19.434Z,52.18
2022-12-23T10:43:20.780Z,51.94
2022-12-23T10:45:22.149Z,52.11
2022-12-23T10:47:23.584Z,52.07
2022-12-23T10:49:24.930Z,51.96
2022-12-23T10:51:26.268Z,52.21
2022-12-23T10:53:27.593Z,52.08
2022-12-23T10:55:33.503Z,51.85
2022-12-23T10:57:35.588Z,51.94
2022-12-23T10:59:37.979Z,52.17
2022-12-23T11:01:39.398Z,52.15
2022-12-23T11:03:41.402Z,51.89
2022-12-23T11:05:43.069Z,52.00
2022-12-23T11:07:45.912Z,51.95
2022-12-23T11:09:47.767Z,51.81
2022-12-23T11:11:49.430Z,51.80
2022-12-23T11:13:51.086Z,52.19
2022-12-23T11:15:52.986Z,52.02
2022-12-23T11:17:54.315Z,51.78
2022-12-23T11:19:55.619Z,52.00
2022-12-23T11:22:02.929Z,51.92
2022-12-23T11:24:04.280Z,51.89
2022-12-23T11:26:05.607Z,52.01
2022-12-23T11:28:06.954Z,51.61
2022-12-23T11:30:08.419Z,51.67
2022-12-23T11:32:09.815Z,51.87
2022-12-23T11:34:11.227Z,51.98
2022-12-23T11:36:12.559Z,51.72
2022-12-23T11:38:13.883Z,52.06
2022-12-23T11:40:15.288Z,51.57
2022-12-23T11:42:19.452Z,51.93
2022-12-23T11:44:20.793Z,51.86
2022-12-23T11:46:22.190Z,51.52
2022-12-23T11:48:23.527Z,51.68
2022-12-23T11:50:24.819Z,52.02
2022-12-23T11:52:26.132Z,51.49
2022-12-23T11:54:27.562Z,51.50
2022-12-23T11:56:28.958Z,51.68
2022-12-23T11:58:30.474Z,51.85
2022-12-23T12:00:34.658Z,51.61
2022-12-23T12:02:36.485Z,51.48
2022-12-23T12:04:38.012Z,51.77
2022-12-23T12:06:39.337Z,51.80
2022-12-23T12:08:40.625Z,51.68
2022-12-23T12:10:42.623Z,51.51
2022-12-23T12:12:43.922Z,51.41
2022-12-23T12:14:45.501Z,51.63
2022-12-23T12:16:46.945Z,51.43
2022-12-23T12:18:55.233Z,51.64
2022-12-23T12:20:57.115Z,51.53
2022-12-23T12:22:58.419Z,51.74
2022-12-23T12:24:59.773Z,51.46
2022-12-23T12:27:01.143Z,51.47
2022-12-23T12:29:02.450Z,51.81
2022-12-23T12:31:03.828Z,51.72
2022-12-23T12:33:05.339Z,51.67
2022-12-23T12:35:07.051Z,51.57
2022-12-23T12:37:10.151Z,51.76
2022-12-23T12:39:11.457Z,51.44
2022-12-23T12:41:12.752Z,51.56
2022-12-23T12:43:14.086Z,51.47
2022-12-23T12:45:15.494Z,51.54
2022-12-23T12:47:52.037Z,51.54
2022-12-23T12:49:41.202Z,51.39
2022-12-23T12:51:42.644Z,51.39
2022-12-23T12:53:43.969Z,51.28
2022-12-23T12:55:46.264Z,51.31
2022-12-23T12:57:47.621Z,51.44
2022-12-23T12:59:48.916Z,51.29
2022-12-23T13:01:50.285Z,51.47
2022-12-23T13:03:51.646Z,51.44
2022-12-23T13:05:54.370Z,51.50
2022-12-23T13:07:55.944Z,51.14
2022-12-23T13:09:57.347Z,51.09
2022-12-23T13:11:58.681Z,51.24
2022-12-23T13:14:00.009Z,50.99
2022-12-23T13:16:04.447Z,51.20
2022-12-23T13:18:05.742Z,51.19
2022-12-23T13:20:07.076Z,50.97
2022-12-23T13:22:11.369Z,51.40
2022-12-23T13:24:12.708Z,50.95
2022-12-23T13:26:14.028Z,51.09
2022-12-23T13:28:15.371Z,51.23
2022-12-23T13:30:17.840Z,51.14
2022-12-23T13:32:19.211Z,50.78
2022-12-23T13:34:20.548Z,51.19
2022-12-23T13:36:21.917Z,51.60
2022-12-23T13:38:23.233Z,51.26
2022-12-23T13:40:27.624Z,51.68
2022-12-23T13:42:28.918Z,51.58
2022-12-23T13:44:30.213Z,51.47
2022-12-23T13:46:31.773Z,51.65
2022-12-23T13:48:33.106Z,51.40
2022-12-23T13:50:34.395Z,51.35
2022-12-23T13:52:35.823Z,51.45
2022-12-23T13:54:37.163Z,51.10
2022-12-23T13:56:38.460Z,51.39
2022-12-23T13:58:39.799Z,51.30
2022-12-23T14:00:41.109Z,51.29
2022-12-23T14:02:43.383Z,51.18
2022-12-23T14:04:47.815Z,51.02
2022-12-23T14:06:49.423Z,51.11
2022-12-23T14:08:50.756Z,50.78
2022-12-23T14:10:52.442Z,51.03
2022-12-23T14:12:54.054Z,50.76
2022-12-23T14:14:55.354Z,51.32
2022-12-23T14:16:59.729Z,50.98
2022-12-23T14:19:01.086Z,50.75
2022-12-23T14:21:02.376Z,51.08
2022-12-23T14:23:03.666Z,50.89
2022-12-23T14:25:05.040Z,50.68
2022-12-23T14:27:06.330Z,50.69
2022-12-23T14:29:07.663Z,50.68
2022-12-23T14:31:09.010Z,50.68
2022-12-23T14:33:10.363Z,50.80
2022-12-23T14:35:11.735Z,50.67
2022-12-23T14:37:13.064Z,50.53
2022-12-23T14:39:14.358Z,50.58
2022-12-23T14:41:15.681Z,50.67
2022-12-23T14:43:17.060Z,50.58
2022-12-23T14:45:18.388Z,50.63
2022-12-23T14:47:22.777Z,50.62
2022-12-23T14:49:40.916Z,50.79
2022-12-23T14:51:42.506Z,50.73
2022-12-23T14:53:43.855Z,50.73
2022-12-23T14:55:45.228Z,50.41
2022-12-23T14:57:46.559Z,50.42
2022-12-23T14:59:49.304Z,50.60
2022-12-23T15:01:50.662Z,50.49
2022-12-23T15:03:57.523Z,50.67
2022-12-23T15:06:02.444Z,50.77
2022-12-23T15:08:04.404Z,50.55
2022-12-23T15:10:05.786Z,50.92
2022-12-23T15:12:07.158Z,50.43
2022-12-23T15:14:11.121Z,50.72
2022-12-23T15:16:12.510Z,50.53
2022-12-23T15:18:13.903Z,50.82
2022-12-23T15:20:15.262Z,50.84
2022-12-23T15:22:23.823Z,50.96
2022-12-23T15:24:29.738Z,51.06
2022-12-23T15:26:31.058Z,50.96
2022-12-23T15:28:32.360Z,50.58
2022-12-23T15:30:34.006Z,50.55
2022-12-23T15:32:35.351Z,51.54
2022-12-23T15:34:36.690Z,51.30
2022-12-23T15:36:40.499Z,51.59
2022-12-23T15:38:42.740Z,51.16
2022-12-23T15:40:44.083Z,51.84
2022-12-23T15:42:45.427Z,52.04
2022-12-23T15:44:46.777Z,51.73
2022-12-23T15:46:52.455Z,51.54
2022-12-23T15:48:53.796Z,51.01
2022-12-23T15:50:55.099Z,51.56
2022-12-23T15:52:57.303Z,51.56
2022-12-23T15:54:58.724Z,51.81
2022-12-23T15:57:00.120Z,51.88
2022-12-23T15:59:01.457Z,51.85
2022-12-23T16:01:02.821Z,51.54
2022-12-23T16:03:07.704Z,51.93
2022-12-23T16:05:13.411Z,51.73
2022-12-23T16:07:14.720Z,52.39
2022-12-23T16:09:16.025Z,52.28
2022-12-23T16:11:17.370Z,51.73
2022-12-23T16:13:18.960Z,52.14
2022-12-23T16:15:20.481Z,52.45
2022-12-23T16:17:22.457Z,52.24
2022-12-23T16:19:24.650Z,52.17
2022-12-23T16:21:26.095Z,51.26
2022-12-23T16:23:28.724Z,51.16
2022-12-23T16:25:31.234Z,50.61
2022-12-23T16:27:32.746Z,50.44
2022-12-23T16:29:34.091Z,51.21
2022-12-23T16:31:35.457Z,52.23
2022-12-23T16:33:37.034Z,52.23
2022-12-23T16:35:38.754Z,51.93
2022-12-23T16:37:41.618Z,52.05
2022-12-23T16:39:48.882Z,51.83
2022-12-23T16:41:53.093Z,51.95
2022-12-23T16:43:54.391Z,52.57
2022-12-23T16:45:55.748Z,51.50
2022-12-23T16:47:57.174Z,51.35
2022-12-23T16:49:58.522Z,51.25
2022-12-23T16:51:59.940Z,50.90
2022-12-23T16:54:01.255Z,50.83
2022-12-23T16:56:02.687Z,50.35
2022-12-23T16:58:04.041Z,50.62
2022-12-23T17:00:05.381Z,50.04
2022-12-23T17:02:06.737Z,52.20
2022-12-23T17:04:11.220Z,51.13
2022-12-23T17:06:13.379Z,49.78
2022-12-23T17:08:14.799Z,49.50
2022-12-23T17:10:16.114Z,50.05
2022-12-23T17:12:17.414Z,50.30
2022-12-23T17:14:18.746Z,50.36
2022-12-23T17:16:20.172Z,50.19
2022-12-23T17:18:24.172Z,50.62
2022-12-23T17:20:25.512Z,51.25
2022-12-23T17:22:26.811Z,51.11
2022-12-23T17:24:28.099Z,52.13
2022-12-23T17:26:29.400Z,51.80
2022-12-23T17:28:30.771Z,51.47
2022-12-23T17:30:32.105Z,51.48
2022-12-23T17:32:33.465Z,52.18
2022-12-23T17:34:34.801Z,51.81
2022-12-23T17:36:36.264Z,52.13
2022-12-23T17:38:38.500Z,52.21
2022-12-23T17:40:39.838Z,52.18
2022-12-23T17:42:41.215Z,52.19
2022-12-23T17:44:42.954Z,52.53
2022-12-23T17:46:44.246Z,53.01
2022-12-23T17:48:47.064Z,52.63
2022-12-23T17:50:48.515Z,52.21
2022-12-23T17:52:49.945Z,53.10
2022-12-23T17:54:51.265Z,53.40
2022-12-23T17:56:52.957Z,52.99
2022-12-23T17:58:54.463Z,53.02
2022-12-23T18:00:55.845Z,53.19
2022-12-23T18:03:00.203Z,53.11
2022-12-23T18:05:01.611Z,53.31
2022-12-23T18:07:02.905Z,54.38
2022-12-23T18:09:04.215Z,53.77
2022-12-23T18:11:05.539Z,53.71
2022-12-23T18:13:06.862Z,53.17
2022-12-23T18:15:08.252Z,52.94
2022-12-23T18:17:12.487Z,53.36
2022-12-23T18:19:13.807Z,52.97
2022-12-23T18:21:15.168Z,53.36
2022-12-23T18:23:16.548Z,53.43
2022-12-23T18:25:20.540Z,52.99
2022-12-23T18:27:21.959Z,52.95
2022-12-23T18:29:23.352Z,52.68
2022-12-23T18:31:24.762Z,52.86
2022-12-23T18:33:28.868Z,53.02
2022-12-23T18:35:30.291Z,52.75
2022-12-23T18:37:31.625Z,52.49
2022-12-23T18:39:32.922Z,53.26
2022-12-23T18:41:34.480Z,53.16
2022-12-23T18:43:35.808Z,53.80
2022-12-23T18:45:37.468Z,52.59
2022-12-23T18:47:38.769Z,53.06
2022-12-23T18:49:40.139Z,52.86
2022-12-23T18:51:41.467Z,52.92
2022-12-23T18:53:43.665Z,53.31
2022-12-23T18:55:45.038Z,53.30
2022-12-23T18:57:46.365Z,53.68
2022-12-23T18:59:47.662Z,53.07
2022-12-23T19:01:48.991Z,53.20
2022-12-23T19:03:50.347Z,53.02
2022-12-23T19:05:51.744Z,53.00
2022-12-23T19:07:53.065Z,53.71
2022-12-23T19:09:54.357Z,53.96
2022-12-23T19:11:55.735Z,53.99
2022-12-23T19:13:57.058Z,54.04
2022-12-23T19:15:58.418Z,54.00
2022-12-23T19:17:59.779Z,54.86
2022-12-23T19:20:01.028Z,54.88
2022-12-23T19:22:05.355Z,55.11
2022-12-23T19:24:13.021Z,54.54
2022-12-23T19:26:14.378Z,54.02
2022-12-23T19:28:15.922Z,54.25
2022-12-23T19:30:17.255Z,54.53
2022-12-23T19:32:18.610Z,53.48
2022-12-23T19:34:19.929Z,54.65
2022-12-23T19:36:22.831Z,54.09
2022-12-23T19:38:24.307Z,54.29
2022-12-23T19:40:25.664Z,54.03
2022-12-23T19:42:26.993Z,54.08
2022-12-23T19:44:28.451Z,53.50
2022-12-23T19:46:29.878Z,53.68
2022-12-23T19:48:31.227Z,54.25
2022-12-23T19:50:32.577Z,54.79
2022-12-23T19:52:36.699Z,54.11
2022-12-23T19:54:38.003Z,53.68
2022-12-23T19:56:39.519Z,53.37
2022-12-23T19:58:40.823Z,53.48
2022-12-23T20:00:42.179Z,53.30
2022-12-23T20:02:43.552Z,53.16
2022-12-23T20:04:44.937Z,53.35
2022-12-23T20:06:46.252Z,53.48
2022-12-23T20:08:48.710Z,53.88
2022-12-23T20:10:50.016Z,53.78
2022-12-23T20:12:51.312Z,53.63
2022-12-23T20:14:52.620Z,53.72
2022-12-23T20:16:56.750Z,53.54
2022-12-23T20:18:58.081Z,54.02
2022-12-23T20:21:00.977Z,53.95
2022-12-23T20:23:02.275Z,54.13
2022-12-23T20:25:06.551Z,53.96
2022-12-23T20:27:11.916Z,54.56
2022-12-23T20:29:14.588Z,55.66
2022-12-23T20:31:15.954Z,56.10
2022-12-23T20:33:17.325Z,55.38
2022-12-23T20:35:18.679Z,55.29
2022-12-23T20:37:20.152Z,55.16
2022-12-23T20:39:21.502Z,55.30
2022-12-23T20:41:22.831Z,55.70
2022-12-23T20:43:24.127Z,55.51
2022-12-23T20:45:25.455Z,55.25
2022-12-23T20:47:26.763Z,55.93
2022-12-23T20:49:28.066Z,55.56
2022-12-23T20:51:32.087Z,55.77
2022-12-23T20:53:33.408Z,56.45
2022-12-23T20:55:34.736Z,56.01
2022-12-23T20:57:36.061Z,55.83
2022-12-23T20:59:37.407Z,55.67
2022-12-23T21:01:41.977Z,55.68
2022-12-23T21:03:43.341Z,55.74
2022-12-23T21:05:44.698Z,55.92
2022-12-23T21:07:51.919Z,55.82
2022-12-23T21:09:53.241Z,55.63
2022-12-23T21:11:54.557Z,55.60
2022-12-23T21:13:59.827Z,55.97
2022-12-23T21:16:04.143Z,56.03
2022-12-23T21:18:05.576Z,55.46
2022-12-23T21:20:07.970Z,55.69
2022-12-23T21:22:09.510Z,55.73
2022-12-23T21:24:10.894Z,55.06
2022-12-23T21:26:12.225Z,55.25
2022-12-23T21:28:13.527Z,55.40
2022-12-23T21:30:14.829Z,55.48
2022-12-23T21:32:16.152Z,55.67
2022-12-23T21:34:20.358Z,55.55
2022-12-23T21:36:21.809Z,55.83
2022-12-23T21:38:23.135Z,55.34
2022-12-23T21:40:24.447Z,55.58
2022-12-23T21:42:25.757Z,55.72
2022-12-23T21:44:27.116Z,55.37
2022-12-23T21:46:28.581Z,55.47
2022-12-23T21:48:29.946Z,55.83
2022-12-23T21:50:31.255Z,56.46
2022-12-23T21:52:32.639Z,55.89
2022-12-23T21:54:33.941Z,55.79
2022-12-23T21:56:35.328Z,55.94
2022-12-23T21:58:36.676Z,55.68
2022-12-23T22:00:38.063Z,55.68
2022-12-23T22:02:39.418Z,55.51
2022-12-23T22:04:40.790Z,56.33
2022-12-23T22:06:43.681Z,55.76
2022-12-23T22:08:45.323Z,55.19
2022-12-23T22:10:47.324Z,55.16
2022-12-23T22:12:48.681Z,55.28
2022-12-23T22:14:49.982Z,55.23
2022-12-23T22:16:51.457Z,54.97
2022-12-23T22:18:53.161Z,55.02
2022-12-23T22:20:54.466Z,54.72
2022-12-23T22:22:55.823Z,54.91
2022-12-23T22:24:57.180Z,55.06
2022-12-23T22:26:58.482Z,54.78
2022-12-23T22:28:59.844Z,54.62
2022-12-23T22:31:01.216Z,54.71
2022-12-23T22:33:02.520Z,54.66
2022-12-23T22:35:03.831Z,54.62
2022-12-23T22:37:05.123Z,54.41
2022-12-23T22:39:07.830Z,54.71
2022-12-23T22:41:10.599Z,54.66
2022-12-23T22:43:11.922Z,54.53
2022-12-23T22:45:13.466Z,54.73
2022-12-23T22:47:14.927Z,54.69
2022-12-23T22:49:16.367Z,55.18
2022-12-23T22:51:17.710Z,54.91
2022-12-23T22:53:22.361Z,55.17
2022-12-23T22:55:26.176Z,54.67
2022-12-23T22:57:27.533Z,55.65
2022-12-23T22:59:28.846Z,55.03
2022-12-23T23:01:30.215Z,55.02
2022-12-23T23:03:31.643Z,55.26
2022-12-23T23:05:33.078Z,55.37
2022-12-23T23:07:34.427Z,55.57
2022-12-23T23:09:37.177Z,55.32
2022-12-23T23:11:38.527Z,55.38
2022-12-23T23:13:39.848Z,55.81
2022-12-23T23:15:41.227Z,55.27
2022-12-23T23:17:42.653Z,55.71
2022-12-23T23:19:46.679Z,55.82
2022-12-23T23:21:48.831Z,55.73
2022-12-23T23:23:50.332Z,55.24
2022-12-23T23:25:51.628Z,55.56
2022-12-23T23:27:52.999Z,55.60
2022-12-23T23:29:54.308Z,55.04
2022-12-23T23:31:55.658Z,55.24
2022-12-23T23:33:57.894Z,54.99
2022-12-23T23:35:59.492Z,55.47
2022-12-23T23:38:00.819Z,55.36
2022-12-23T23:40:02.128Z,55.41
2022-12-23T23:42:03.495Z,54.70
2022-12-23T23:44:04.956Z,54.80
2022-12-23T23:46:06.319Z,55.03
2022-12-23T23:48:07.645Z,54.95
2022-12-23T23:50:09.028Z,54.46
2022-12-23T23:52:10.370Z,54.44
2022-12-23T23:54:11.709Z,54.82
2022-12-23T23:56:13.266Z,54.47
2022-12-23T23:58:14.666Z,54.26
